sensor_id;sensor_type;location;lat;lon;timestamp;P1;durP1;ratioP1;P2;durP2;ratioP2
20399;SDS011;10359;53.596;22.520;2022-07-06T00:01:22;6.87;;;5.73;;
20399;SDS011;10359;53.596;22.520;2022-07-06T00:03:51;5.57;;;5.00;;
20399;SDS011;10359;53.596;22.520;2022-07-06T00:06:21;5.33;;;4.83;;
20399;SDS011;10359;53.596;22.520;2022-07-06T00:08:50;5.87;;;5.27;;
20399;SDS011;10359;53.596;22.520;2022-07-06T00:11:19;5.70;;;5.10;;
20399;SDS011;10359;53.596;22.520;2022-07-06T00:13:50;7.70;;;5.67;;
20399;SDS011;10359;53.596;22.520;2022-07-06T00:16:20;6.80;;;4.97;;
20399;SDS011;10359;53.596;22.520;2022-07-06T00:18:49;5.47;;;4.90;;
20399;SDS011;10359;53.596;22.520;2022-07-06T00:21:18;6.73;;;5.63;;
20399;SDS011;10359;53.596;22.520;2022-07-06T00:23:53;6.53;;;4.90;;
20399;SDS011;10359;53.596;22.520;2022-07-06T00:26:28;5.63;;;5.00;;
20399;SDS011;10359;53.596;22.520;2022-07-06T00:28:59;9.07;;;5.27;;
20399;SDS011;10359;53.596;22.520;2022-07-06T00:31:28;7.57;;;5.60;;
20399;SDS011;10359;53.596;22.520;2022-07-06T00:33:57;6.40;;;5.00;;
20399;SDS011;10359;53.596;22.520;2022-07-06T00:36:26;7.50;;;5.47;;
20399;SDS011;10359;53.596;22.520;2022-07-06T00:38:55;8.07;;;4.80;;
20399;SDS011;10359;53.596;22.520;2022-07-06T00:41:24;6.57;;;5.70;;
20399;SDS011;10359;53.596;22.520;2022-07-06T00:43:54;6.50;;;5.30;;
20399;SDS011;10359;53.596;22.520;2022-07-06T00:46:26;5.63;;;4.80;;
20399;SDS011;10359;53.596;22.520;2022-07-06T00:48:56;5.40;;;4.90;;
20399;SDS011;10359;53.596;22.520;2022-07-06T00:51:28;5.17;;;4.67;;
20399;SDS011;10359;53.596;22.520;2022-07-06T00:53:58;8.27;;;4.77;;
20399;SDS011;10359;53.596;22.520;2022-07-06T00:56:31;5.53;;;5.00;;
20399;SDS011;10359;53.596;22.520;2022-07-06T00:59:00;6.63;;;5.13;;
20399;SDS011;10359;53.596;22.520;2022-07-06T01:01:31;8.60;;;5.93;;
20399;SDS011;10359;53.596;22.520;2022-07-06T01:04:00;8.47;;;5.67;;
20399;SDS011;10359;53.596;22.520;2022-07-06T01:06:30;6.10;;;5.50;;
20399;SDS011;10359;53.596;22.520;2022-07-06T01:08:58;7.60;;;6.17;;
20399;SDS011;10359;53.596;22.520;2022-07-06T01:11:28;10.50;;;6.07;;
20399;SDS011;10359;53.596;22.520;2022-07-06T01:13:57;9.70;;;6.27;;
20399;SDS011;10359;53.596;22.520;2022-07-06T01:16:29;7.60;;;6.87;;
20399;SDS011;10359;53.596;22.520;2022-07-06T01:19:00;9.50;;;7.50;;
20399;SDS011;10359;53.596;22.520;2022-07-06T01:21:30;8.77;;;7.20;;
20399;SDS011;10359;53.596;22.520;2022-07-06T01:24:00;8.83;;;7.50;;
20399;SDS011;10359;53.596;22.520;2022-07-06T01:26:29;8.47;;;7.57;;
20399;SDS011;10359;53.596;22.520;2022-07-06T01:28:58;10.70;;;8.10;;
20399;SDS011;10359;53.596;22.520;2022-07-06T01:31:28;8.60;;;6.80;;
20399;SDS011;10359;53.596;22.520;2022-07-06T01:33:57;10.37;;;8.87;;
20399;SDS011;10359;53.596;22.520;2022-07-06T01:36:26;8.60;;;7.33;;
20399;SDS011;10359;53.596;22.520;2022-07-06T01:38:57;14.13;;;9.63;;
20399;SDS011;10359;53.596;22.520;2022-07-06T01:41:26;12.07;;;8.20;;
20399;SDS011;10359;53.596;22.520;2022-07-06T01:43:55;11.77;;;9.50;;
20399;SDS011;10359;53.596;22.520;2022-07-06T01:46:25;10.03;;;8.20;;
20399;SDS011;10359;53.596;22.520;2022-07-06T01:48:54;13.27;;;9.83;;
20399;SDS011;10359;53.596;22.520;2022-07-06T01:51:23;12.23;;;8.93;;
20399;SDS011;10359;53.596;22.520;2022-07-06T01:53:53;9.37;;;8.37;;
20399;SDS011;10359;53.596;22.520;2022-07-06T01:56:24;9.57;;;8.67;;
20399;SDS011;10359;53.596;22.520;2022-07-06T01:58:53;12.67;;;10.30;;
20399;SDS011;10359;53.596;22.520;2022-07-06T02:01:23;10.97;;;9.70;;
20399;SDS011;10359;53.596;22.520;2022-07-06T02:03:53;9.87;;;8.90;;
20399;SDS011;10359;53.596;22.520;2022-07-06T02:06:22;10.40;;;8.93;;
20399;SDS011;10359;53.596;22.520;2022-07-06T02:08:51;11.50;;;9.43;;
20399;SDS011;10359;53.596;22.520;2022-07-06T02:14:36;14.40;;;9.53;;
20399;SDS011;10359;53.596;22.520;2022-07-06T02:17:25;11.60;;;9.23;;
20399;SDS011;10359;53.596;22.520;2022-07-06T02:20:15;9.47;;;7.80;;
20399;SDS011;10359;53.596;22.520;2022-07-06T02:23:04;10.07;;;9.03;;
20399;SDS011;10359;53.596;22.520;2022-07-06T02:25:53;15.83;;;10.17;;
20399;SDS011;10359;53.596;22.520;2022-07-06T02:28:43;9.47;;;8.17;;
20399;SDS011;10359;53.596;22.520;2022-07-06T02:31:34;16.33;;;11.13;;
20399;SDS011;10359;53.596;22.520;2022-07-06T02:34:24;11.47;;;8.77;;
20399;SDS011;10359;53.596;22.520;2022-07-06T02:37:13;11.27;;;9.40;;
20399;SDS011;10359;53.596;22.520;2022-07-06T02:40:03;12.47;;;9.70;;
20399;SDS011;10359;53.596;22.520;2022-07-06T02:42:53;10.27;;;9.33;;
20399;SDS011;10359;53.596;22.520;2022-07-06T02:45:43;12.87;;;10.57;;
20399;SDS011;10359;53.596;22.520;2022-07-06T02:48:34;13.10;;;11.70;;
20399;SDS011;10359;53.596;22.520;2022-07-06T02:51:23;16.07;;;11.70;;
20399;SDS011;10359;53.596;22.520;2022-07-06T02:54:13;11.20;;;10.03;;
20399;SDS011;10359;53.596;22.520;2022-07-06T02:57:03;11.00;;;9.90;;
20399;SDS011;10359;53.596;22.520;2022-07-06T02:59:52;9.27;;;8.37;;
20399;SDS011;10359;53.596;22.520;2022-07-06T03:02:41;11.13;;;9.70;;
20399;SDS011;10359;53.596;22.520;2022-07-06T03:05:32;12.40;;;10.60;;
20399;SDS011;10359;53.596;22.520;2022-07-06T03:08:22;11.83;;;10.63;;
20399;SDS011;10359;53.596;22.520;2022-07-06T03:11:12;13.03;;;11.73;;
20399;SDS011;10359;53.596;22.520;2022-07-06T03:14:02;12.10;;;10.93;;
20399;SDS011;10359;53.596;22.520;2022-07-06T03:16:51;13.57;;;12.20;;
20399;SDS011;10359;53.596;22.520;2022-07-06T03:19:41;12.70;;;11.50;;
20399;SDS011;10359;53.596;22.520;2022-07-06T03:22:32;12.10;;;10.90;;
20399;SDS011;10359;53.596;22.520;2022-07-06T03:25:21;10.37;;;9.57;;
20399;SDS011;10359;53.596;22.520;2022-07-06T03:28:11;11.30;;;10.17;;
20399;SDS011;10359;53.596;22.520;2022-07-06T03:31:00;10.53;;;9.57;;
20399;SDS011;10359;53.596;22.520;2022-07-06T03:33:51;12.43;;;11.13;;
20399;SDS011;10359;53.596;22.520;2022-07-06T03:36:41;14.13;;;10.97;;
20399;SDS011;10359;53.596;22.520;2022-07-06T03:39:32;9.83;;;8.50;;
20399;SDS011;10359;53.596;22.520;2022-07-06T03:42:21;12.97;;;10.07;;
20399;SDS011;10359;53.596;22.520;2022-07-06T03:45:10;9.57;;;8.77;;
20399;SDS011;10359;53.596;22.520;2022-07-06T03:48:00;10.67;;;9.67;;
20399;SDS011;10359;53.596;22.520;2022-07-06T03:50:49;15.17;;;10.77;;
20399;SDS011;10359;53.596;22.520;2022-07-06T03:53:38;12.83;;;10.37;;
20399;SDS011;10359;53.596;22.520;2022-07-06T03:56:29;11.53;;;9.80;;
20399;SDS011;10359;53.596;22.520;2022-07-06T03:59:19;12.93;;;10.53;;
20399;SDS011;10359;53.596;22.520;2022-07-06T04:02:09;11.83;;;10.57;;
20399;SDS011;10359;53.596;22.520;2022-07-06T04:04:58;14.77;;;12.87;;
20399;SDS011;10359;53.596;22.520;2022-07-06T04:07:48;13.50;;;11.77;;
20399;SDS011;10359;53.596;22.520;2022-07-06T04:10:37;11.60;;;10.40;;
20399;SDS011;10359;53.596;22.520;2022-07-06T04:13:28;14.83;;;12.03;;
20399;SDS011;10359;53.596;22.520;2022-07-06T04:16:17;14.40;;;12.93;;
20399;SDS011;10359;53.596;22.520;2022-07-06T04:19:07;14.37;;;11.37;;
20399;SDS011;10359;53.596;22.520;2022-07-06T04:21:56;8.90;;;8.10;;
20399;SDS011;10359;53.596;22.520;2022-07-06T04:24:45;8.87;;;8.00;;
20399;SDS011;10359;53.596;22.520;2022-07-06T04:27:35;10.77;;;9.73;;
20399;SDS011;10359;53.596;22.520;2022-07-06T04:30:26;9.90;;;8.70;;
20399;SDS011;10359;53.596;22.520;2022-07-06T04:33:15;8.97;;;8.17;;
20399;SDS011;10359;53.596;22.520;2022-07-06T04:36:05;8.70;;;7.80;;
20399;SDS011;10359;53.596;22.520;2022-07-06T04:38:54;9.83;;;6.93;;
20399;SDS011;10359;53.596;22.520;2022-07-06T04:41:44;7.50;;;6.60;;
20399;SDS011;10359;53.596;22.520;2022-07-06T04:44:33;8.70;;;6.80;;
20399;SDS011;10359;53.596;22.520;2022-07-06T04:47:24;7.00;;;6.30;;
20399;SDS011;10359;53.596;22.520;2022-07-06T04:50:13;7.67;;;6.97;;
20399;SDS011;10359;53.596;22.520;2022-07-06T04:53:02;7.80;;;6.43;;
20399;SDS011;10359;53.596;22.520;2022-07-06T04:55:52;7.07;;;5.93;;
20399;SDS011;10359;53.596;22.520;2022-07-06T04:58:41;9.57;;;7.10;;
20399;SDS011;10359;53.596;22.520;2022-07-06T05:01:31;9.60;;;5.73;;
20399;SDS011;10359;53.596;22.520;2022-07-06T05:04:22;14.43;;;8.43;;
20399;SDS011;10359;53.596;22.520;2022-07-06T05:07:11;12.37;;;8.43;;
20399;SDS011;10359;53.596;22.520;2022-07-06T05:10:01;8.47;;;7.13;;
20399;SDS011;10359;53.596;22.520;2022-07-06T05:12:50;8.67;;;7.77;;
20399;SDS011;10359;53.596;22.520;2022-07-06T05:15:40;8.33;;;7.53;;
20399;SDS011;10359;53.596;22.520;2022-07-06T05:18:29;5.70;;;5.20;;
20399;SDS011;10359;53.596;22.520;2022-07-06T05:21:20;5.70;;;5.20;;
20399;SDS011;10359;53.596;22.520;2022-07-06T05:24:10;7.03;;;5.80;;
20399;SDS011;10359;53.596;22.520;2022-07-06T05:26:59;8.10;;;6.73;;
20399;SDS011;10359;53.596;22.520;2022-07-06T05:29:48;5.63;;;5.13;;
20399;SDS011;10359;53.596;22.520;2022-07-06T05:32:38;5.40;;;4.90;;
20399;SDS011;10359;53.596;22.520;2022-07-06T05:35:28;6.23;;;4.77;;
20399;SDS011;10359;53.596;22.520;2022-07-06T05:38:38;5.40;;;4.90;;
20399;SDS011;10359;53.596;22.520;2022-07-06T05:41:28;6.30;;;4.77;;
20399;SDS011;10359;53.596;22.520;2022-07-06T05:44:17;6.17;;;5.17;;
20399;SDS011;10359;53.596;22.520;2022-07-06T05:47:07;5.30;;;3.80;;
20399;SDS011;10359;53.596;22.520;2022-07-06T05:50:13;4.37;;;3.97;;
20399;SDS011;10359;53.596;22.520;2022-07-06T05:53:04;4.93;;;4.17;;
20399;SDS011;10359;53.596;22.520;2022-07-06T05:56:04;5.60;;;3.87;;
20399;SDS011;10359;53.596;22.520;2022-07-06T05:58:54;7.27;;;4.40;;
20399;SDS011;10359;53.596;22.520;2022-07-06T06:01:43;4.53;;;4.07;;
20399;SDS011;10359;53.596;22.520;2022-07-06T06:04:33;5.00;;;4.50;;
20399;SDS011;10359;53.596;22.520;2022-07-06T06:07:22;7.60;;;4.63;;
20399;SDS011;10359;53.596;22.520;2022-07-06T06:10:12;6.90;;;4.10;;
20399;SDS011;10359;53.596;22.520;2022-07-06T06:13:04;5.67;;;4.63;;
20399;SDS011;10359;53.596;22.520;2022-07-06T06:15:53;6.97;;;4.37;;
20399;SDS011;10359;53.596;22.520;2022-07-06T06:18:43;7.80;;;5.50;;
20399;SDS011;10359;53.596;22.520;2022-07-06T06:21:32;6.67;;;5.80;;
20399;SDS011;10359;53.596;22.520;2022-07-06T06:24:22;8.70;;;5.50;;
20399;SDS011;10359;53.596;22.520;2022-07-06T06:27:15;7.93;;;5.70;;
20399;SDS011;10359;53.596;22.520;2022-07-06T06:30:07;5.03;;;4.53;;
20399;SDS011;10359;53.596;22.520;2022-07-06T06:33:09;7.77;;;4.93;;
20399;SDS011;10359;53.596;22.520;2022-07-06T06:36:00;7.37;;;4.90;;
20399;SDS011;10359;53.596;22.520;2022-07-06T06:38:49;6.57;;;4.30;;
20399;SDS011;10359;53.596;22.520;2022-07-06T06:41:42;8.87;;;4.87;;
20399;SDS011;10359;53.596;22.520;2022-07-06T06:44:32;6.10;;;4.77;;
20399;SDS011;10359;53.596;22.520;2022-07-06T06:47:23;7.43;;;4.83;;
20399;SDS011;10359;53.596;22.520;2022-07-06T06:50:12;13.43;;;5.67;;
20399;SDS011;10359;53.596;22.520;2022-07-06T06:53:02;5.17;;;4.67;;
20399;SDS011;10359;53.596;22.520;2022-07-06T06:55:51;5.87;;;4.60;;
20399;SDS011;10359;53.596;22.520;2022-07-06T06:58:41;8.57;;;6.07;;
20399;SDS011;10359;53.596;22.520;2022-07-06T07:01:50;8.77;;;6.67;;
20399;SDS011;10359;53.596;22.520;2022-07-06T07:04:43;7.27;;;6.10;;
20399;SDS011;10359;53.596;22.520;2022-07-06T07:07:33;6.00;;;5.30;;
20399;SDS011;10359;53.596;22.520;2022-07-06T07:10:23;5.87;;;5.27;;
20399;SDS011;10359;53.596;22.520;2022-07-06T07:13:13;5.60;;;4.17;;
20399;SDS011;10359;53.596;22.520;2022-07-06T07:16:03;6.50;;;4.40;;
20399;SDS011;10359;53.596;22.520;2022-07-06T07:18:53;8.87;;;4.13;;
20399;SDS011;10359;53.596;22.520;2022-07-06T07:21:43;7.37;;;4.43;;
20399;SDS011;10359;53.596;22.520;2022-07-06T07:24:33;6.17;;;3.47;;
20399;SDS011;10359;53.596;22.520;2022-07-06T07:27:22;4.80;;;3.77;;
20399;SDS011;10359;53.596;22.520;2022-07-06T07:30:12;7.40;;;3.83;;
20399;SDS011;10359;53.596;22.520;2022-07-06T07:33:01;6.07;;;4.03;;
20399;SDS011;10359;53.596;22.520;2022-07-06T07:35:50;6.47;;;3.70;;
20399;SDS011;10359;53.596;22.520;2022-07-06T07:38:41;7.47;;;3.67;;
20399;SDS011;10359;53.596;22.520;2022-07-06T07:41:31;6.73;;;3.60;;
20399;SDS011;10359;53.596;22.520;2022-07-06T07:44:20;4.83;;;3.43;;
20399;SDS011;10359;53.596;22.520;2022-07-06T07:47:12;5.83;;;3.10;;
20399;SDS011;10359;53.596;22.520;2022-07-06T07:50:01;6.33;;;3.37;;
20399;SDS011;10359;53.596;22.520;2022-07-06T07:52:51;4.97;;;3.07;;
20399;SDS011;10359;53.596;22.520;2022-07-06T07:55:42;3.70;;;2.93;;
20399;SDS011;10359;53.596;22.520;2022-07-06T07:58:32;4.33;;;3.20;;
20399;SDS011;10359;53.596;22.520;2022-07-06T08:01:21;6.20;;;3.60;;
20399;SDS011;10359;53.596;22.520;2022-07-06T08:04:11;6.87;;;3.30;;
20399;SDS011;10359;53.596;22.520;2022-07-06T08:07:00;4.27;;;3.20;;
20399;SDS011;10359;53.596;22.520;2022-07-06T08:09:50;3.83;;;2.87;;
20399;SDS011;10359;53.596;22.520;2022-07-06T08:12:40;3.90;;;3.37;;
20399;SDS011;10359;53.596;22.520;2022-07-06T08:15:32;7.93;;;3.80;;
20399;SDS011;10359;53.596;22.520;2022-07-06T08:18:21;4.83;;;3.20;;
20399;SDS011;10359;53.596;22.520;2022-07-06T08:21:11;7.00;;;3.50;;
20399;SDS011;10359;53.596;22.520;2022-07-06T08:24:11;4.33;;;3.17;;
20399;SDS011;10359;53.596;22.520;2022-07-06T08:27:00;3.80;;;3.10;;
20399;SDS011;10359;53.596;22.520;2022-07-06T08:29:52;4.67;;;3.37;;
20399;SDS011;10359;53.596;22.520;2022-07-06T08:32:42;5.50;;;2.90;;
20399;SDS011;10359;53.596;22.520;2022-07-06T08:35:51;3.60;;;2.30;;
20399;SDS011;10359;53.596;22.520;2022-07-06T08:38:41;3.03;;;2.40;;
20399;SDS011;10359;53.596;22.520;2022-07-06T08:41:30;3.43;;;2.30;;
20399;SDS011;10359;53.596;22.520;2022-07-06T08:44:20;4.93;;;2.80;;
20399;SDS011;10359;53.596;22.520;2022-07-06T08:47:11;5.47;;;2.47;;
20399;SDS011;10359;53.596;22.520;2022-07-06T08:50:02;5.30;;;2.80;;
20399;SDS011;10359;53.596;22.520;2022-07-06T08:52:52;5.43;;;2.70;;
20399;SDS011;10359;53.596;22.520;2022-07-06T08:55:42;3.17;;;2.40;;
20399;SDS011;10359;53.596;22.520;2022-07-06T08:58:32;4.03;;;2.83;;
20399;SDS011;10359;53.596;22.520;2022-07-06T09:01:21;3.77;;;2.60;;
20399;SDS011;10359;53.596;22.520;2022-07-06T09:04:13;2.33;;;2.10;;
20399;SDS011;10359;53.596;22.520;2022-07-06T09:07:05;3.90;;;2.43;;
20399;SDS011;10359;53.596;22.520;2022-07-06T09:09:55;2.80;;;2.20;;
20399;SDS011;10359;53.596;22.520;2022-07-06T09:12:46;2.47;;;2.23;;
20399;SDS011;10359;53.596;22.520;2022-07-06T09:15:36;3.20;;;2.13;;
20399;SDS011;10359;53.596;22.520;2022-07-06T09:18:27;3.47;;;2.33;;
20399;SDS011;10359;53.596;22.520;2022-07-06T09:21:23;5.90;;;2.70;;
20399;SDS011;10359;53.596;22.520;2022-07-06T09:24:14;4.80;;;2.80;;
20399;SDS011;10359;53.596;22.520;2022-07-06T09:27:04;2.40;;;2.20;;
20399;SDS011;10359;53.596;22.520;2022-07-06T09:29:53;3.30;;;2.43;;
20399;SDS011;10359;53.596;22.520;2022-07-06T09:32:43;4.80;;;2.47;;
20399;SDS011;10359;53.596;22.520;2022-07-06T09:35:35;4.23;;;3.03;;
20399;SDS011;10359;53.596;22.520;2022-07-06T09:38:27;4.53;;;2.70;;
20399;SDS011;10359;53.596;22.520;2022-07-06T09:41:29;4.53;;;3.00;;
20399;SDS011;10359;53.596;22.520;2022-07-06T09:44:23;5.17;;;2.93;;
20399;SDS011;10359;53.596;22.520;2022-07-06T09:47:14;5.13;;;3.47;;
20399;SDS011;10359;53.596;22.520;2022-07-06T09:50:04;4.83;;;2.87;;
20399;SDS011;10359;53.596;22.520;2022-07-06T09:52:55;7.23;;;2.90;;
20399;SDS011;10359;53.596;22.520;2022-07-06T09:55:46;3.93;;;2.77;;
20399;SDS011;10359;53.596;22.520;2022-07-06T09:58:37;3.47;;;2.90;;
20399;SDS011;10359;53.596;22.520;2022-07-06T10:01:48;4.97;;;2.73;;
20399;SDS011;10359;53.596;22.520;2022-07-06T10:04:40;3.07;;;2.37;;
20399;SDS011;10359;53.596;22.520;2022-07-06T10:07:32;4.17;;;2.20;;
20399;SDS011;10359;53.596;22.520;2022-07-06T10:10:23;2.73;;;2.00;;
20399;SDS011;10359;53.596;22.520;2022-07-06T10:13:16;5.33;;;2.27;;
20399;SDS011;10359;53.596;22.520;2022-07-06T10:16:10;4.73;;;1.80;;
20399;SDS011;10359;53.596;22.520;2022-07-06T10:18:59;2.50;;;1.80;;
20399;SDS011;10359;53.596;22.520;2022-07-06T10:21:50;3.27;;;1.80;;
20399;SDS011;10359;53.596;22.520;2022-07-06T10:24:40;3.17;;;1.60;;
20399;SDS011;10359;53.596;22.520;2022-07-06T10:27:30;1.90;;;1.60;;
20399;SDS011;10359;53.596;22.520;2022-07-06T10:30:22;3.13;;;2.10;;
20399;SDS011;10359;53.596;22.520;2022-07-06T10:33:13;4.10;;;1.50;;
20399;SDS011;10359;53.596;22.520;2022-07-06T10:36:04;5.60;;;2.13;;
20399;SDS011;10359;53.596;22.520;2022-07-06T10:38:57;3.30;;;1.73;;
20399;SDS011;10359;53.596;22.520;2022-07-06T10:42:06;4.90;;;1.63;;
20399;SDS011;10359;53.596;22.520;2022-07-06T10:44:54;3.20;;;1.70;;
20399;SDS011;10359;53.596;22.520;2022-07-06T10:47:45;2.23;;;1.53;;
20399;SDS011;10359;53.596;22.520;2022-07-06T10:50:35;3.17;;;1.50;;
20399;SDS011;10359;53.596;22.520;2022-07-06T10:53:24;1.60;;;1.50;;
20399;SDS011;10359;53.596;22.520;2022-07-06T10:56:15;4.13;;;1.63;;
20399;SDS011;10359;53.596;22.520;2022-07-06T10:59:08;3.17;;;1.50;;
20399;SDS011;10359;53.596;22.520;2022-07-06T11:02:11;5.27;;;1.67;;
20399;SDS011;10359;53.596;22.520;2022-07-06T11:05:05;2.33;;;1.33;;
20399;SDS011;10359;53.596;22.520;2022-07-06T11:08:00;3.10;;;1.60;;
20399;SDS011;10359;53.596;22.520;2022-07-06T11:10:50;1.50;;;1.40;;
20399;SDS011;10359;53.596;22.520;2022-07-06T11:13:48;3.77;;;1.60;;
20399;SDS011;10359;53.596;22.520;2022-07-06T11:16:40;3.57;;;1.40;;
20399;SDS011;10359;53.596;22.520;2022-07-06T11:19:49;2.93;;;1.50;;
20399;SDS011;10359;53.596;22.520;2022-07-06T11:22:45;3.40;;;1.60;;
20399;SDS011;10359;53.596;22.520;2022-07-06T11:25:34;2.83;;;1.67;;
20399;SDS011;10359;53.596;22.520;2022-07-06T11:28:24;2.40;;;1.50;;
20399;SDS011;10359;53.596;22.520;2022-07-06T11:31:15;3.67;;;1.90;;
20399;SDS011;10359;53.596;22.520;2022-07-06T11:34:05;4.77;;;1.70;;
20399;SDS011;10359;53.596;22.520;2022-07-06T11:36:55;2.60;;;1.80;;
20399;SDS011;10359;53.596;22.520;2022-07-06T11:39:47;2.60;;;1.67;;
20399;SDS011;10359;53.596;22.520;2022-07-06T11:42:37;3.07;;;1.70;;
20399;SDS011;10359;53.596;22.520;2022-07-06T11:45:27;4.73;;;1.77;;
20399;SDS011;10359;53.596;22.520;2022-07-06T11:48:16;5.77;;;1.70;;
20399;SDS011;10359;53.596;22.520;2022-07-06T11:51:06;2.73;;;1.90;;
20399;SDS011;10359;53.596;22.520;2022-07-06T11:53:56;3.37;;;2.00;;
20399;SDS011;10359;53.596;22.520;2022-07-06T11:56:49;5.20;;;1.60;;
20399;SDS011;10359;53.596;22.520;2022-07-06T11:59:40;4.50;;;2.40;;
20399;SDS011;10359;53.596;22.520;2022-07-06T12:02:33;2.27;;;2.00;;
20399;SDS011;10359;53.596;22.520;2022-07-06T12:05:28;2.73;;;1.80;;
20399;SDS011;10359;53.596;22.520;2022-07-06T12:08:19;1.93;;;1.73;;
20399;SDS011;10359;53.596;22.520;2022-07-06T12:11:08;2.00;;;1.50;;
20399;SDS011;10359;53.596;22.520;2022-07-06T12:14:00;2.27;;;1.60;;
20399;SDS011;10359;53.596;22.520;2022-07-06T12:16:51;2.07;;;1.60;;
20399;SDS011;10359;53.596;22.520;2022-07-06T12:19:41;2.63;;;1.57;;
20399;SDS011;10359;53.596;22.520;2022-07-06T12:22:31;3.10;;;1.80;;
20399;SDS011;10359;53.596;22.520;2022-07-06T12:25:29;5.10;;;1.50;;
20399;SDS011;10359;53.596;22.520;2022-07-06T12:28:22;4.07;;;1.70;;
20399;SDS011;10359;53.596;22.520;2022-07-06T12:31:30;5.00;;;2.20;;
20399;SDS011;10359;53.596;22.520;2022-07-06T12:34:21;2.57;;;1.57;;
20399;SDS011;10359;53.596;22.520;2022-07-06T12:37:12;2.87;;;1.40;;
20399;SDS011;10359;53.596;22.520;2022-07-06T12:40:04;2.97;;;1.40;;
20399;SDS011;10359;53.596;22.520;2022-07-06T12:43:01;3.57;;;1.50;;
20399;SDS011;10359;53.596;22.520;2022-07-06T12:45:51;3.23;;;1.27;;
20399;SDS011;10359;53.596;22.520;2022-07-06T12:48:51;4.00;;;1.50;;
20399;SDS011;10359;53.596;22.520;2022-07-06T12:51:53;1.45;;;1.20;;
20399;SDS011;10359;53.596;22.520;2022-07-06T12:54:45;2.25;;;1.27;;
20399;SDS011;10359;53.596;22.520;2022-07-06T12:57:42;2.60;;;1.25;;
20399;SDS011;10359;53.596;22.520;2022-07-06T13:00:43;2.28;;;1.50;;
20399;SDS011;10359;53.596;22.520;2022-07-06T13:03:37;3.50;;;1.40;;
20399;SDS011;10359;53.596;22.520;2022-07-06T13:06:32;2.70;;;1.40;;
20399;SDS011;10359;53.596;22.520;2022-07-06T13:09:24;3.20;;;1.37;;
20399;SDS011;10359;53.596;22.520;2022-07-06T13:12:13;3.40;;;1.60;;
20399;SDS011;10359;53.596;22.520;2022-07-06T13:15:04;2.73;;;1.50;;
20399;SDS011;10359;53.596;22.520;2022-07-06T13:17:54;3.83;;;1.40;;
20399;SDS011;10359;53.596;22.520;2022-07-06T13:20:43;2.00;;;1.40;;
20399;SDS011;10359;53.596;22.520;2022-07-06T13:23:34;3.20;;;1.20;;
20399;SDS011;10359;53.596;22.520;2022-07-06T13:26:24;1.40;;;1.17;;
20399;SDS011;10359;53.596;22.520;2022-07-06T13:29:13;3.43;;;1.30;;
20399;SDS011;10359;53.596;22.520;2022-07-06T13:32:03;4.20;;;1.30;;
20399;SDS011;10359;53.596;22.520;2022-07-06T13:34:54;1.87;;;1.30;;
20399;SDS011;10359;53.596;22.520;2022-07-06T13:37:43;3.33;;;1.40;;
20399;SDS011;10359;53.596;22.520;2022-07-06T13:40:35;4.20;;;1.60;;
20399;SDS011;10359;53.596;22.520;2022-07-06T13:43:25;1.87;;;1.20;;
20399;SDS011;10359;53.596;22.520;2022-07-06T13:46:23;2.17;;;1.30;;
20399;SDS011;10359;53.596;22.520;2022-07-06T13:49:13;3.30;;;1.43;;
20399;SDS011;10359;53.596;22.520;2022-07-06T13:52:03;3.13;;;1.60;;
20399;SDS011;10359;53.596;22.520;2022-07-06T13:54:54;1.37;;;1.23;;
20399;SDS011;10359;53.596;22.520;2022-07-06T13:57:49;2.40;;;1.37;;
20399;SDS011;10359;53.596;22.520;2022-07-06T14:00:39;2.03;;;1.30;;
20399;SDS011;10359;53.596;22.520;2022-07-06T14:03:29;2.20;;;1.70;;
20399;SDS011;10359;53.596;22.520;2022-07-06T14:06:19;3.40;;;1.40;;
20399;SDS011;10359;53.596;22.520;2022-07-06T14:09:08;4.20;;;1.40;;
20399;SDS011;10359;53.596;22.520;2022-07-06T14:11:58;2.33;;;1.23;;
20399;SDS011;10359;53.596;22.520;2022-07-06T14:14:49;2.93;;;1.07;;
20399;SDS011;10359;53.596;22.520;2022-07-06T14:17:38;2.15;;;1.13;;
20399;SDS011;10359;53.596;22.520;2022-07-06T14:20:28;2.85;;;1.13;;
20399;SDS011;10359;53.596;22.520;2022-07-06T14:23:18;2.72;;;1.10;;
20399;SDS011;10359;53.596;22.520;2022-07-06T14:26:08;3.65;;;1.15;;
20399;SDS011;10359;53.596;22.520;2022-07-06T14:28:57;2.17;;;1.00;;
20399;SDS011;10359;53.596;22.520;2022-07-06T14:31:48;4.78;;;1.38;;
20399;SDS011;10359;53.596;22.520;2022-07-06T14:34:38;3.28;;;1.15;;
20399;SDS011;10359;53.596;22.520;2022-07-06T14:37:27;2.47;;;0.90;;
20399;SDS011;10359;53.596;22.520;2022-07-06T14:40:17;1.90;;;1.00;;
20399;SDS011;10359;53.596;22.520;2022-07-06T14:43:07;2.72;;;1.05;;
20399;SDS011;10359;53.596;22.520;2022-07-06T14:46:04;2.42;;;1.13;;
20399;SDS011;10359;53.596;22.520;2022-07-06T14:48:55;5.35;;;1.30;;
20399;SDS011;10359;53.596;22.520;2022-07-06T14:51:45;2.22;;;1.10;;
20399;SDS011;10359;53.596;22.520;2022-07-06T14:54:34;1.98;;;0.90;;
20399;SDS011;10359;53.596;22.520;2022-07-06T14:57:24;2.25;;;1.17;;
20399;SDS011;10359;53.596;22.520;2022-07-06T15:00:14;2.47;;;1.00;;
20399;SDS011;10359;53.596;22.520;2022-07-06T15:03:04;1.45;;;1.15;;
20399;SDS011;10359;53.596;22.520;2022-07-06T15:05:55;2.30;;;1.10;;
20399;SDS011;10359;53.596;22.520;2022-07-06T15:08:44;1.13;;;1.00;;
20399;SDS011;10359;53.596;22.520;2022-07-06T15:11:35;2.28;;;1.38;;
20399;SDS011;10359;53.596;22.520;2022-07-06T15:14:24;2.22;;;1.17;;
20399;SDS011;10359;53.596;22.520;2022-07-06T15:17:14;3.28;;;1.30;;
20399;SDS011;10359;53.596;22.520;2022-07-06T15:20:04;1.90;;;1.10;;
20399;SDS011;10359;53.596;22.520;2022-07-06T15:22:55;1.37;;;0.90;;
20399;SDS011;10359;53.596;22.520;2022-07-06T15:25:45;2.70;;;1.20;;
20399;SDS011;10359;53.596;22.520;2022-07-06T15:28:41;2.80;;;1.20;;
20399;SDS011;10359;53.596;22.520;2022-07-06T15:31:31;3.13;;;1.20;;
20399;SDS011;10359;53.596;22.520;2022-07-06T15:34:21;2.10;;;1.40;;
20399;SDS011;10359;53.596;22.520;2022-07-06T15:37:11;2.80;;;1.47;;
20399;SDS011;10359;53.596;22.520;2022-07-06T15:40:02;3.20;;;1.50;;
20399;SDS011;10359;53.596;22.520;2022-07-06T15:42:53;3.43;;;1.53;;
20399;SDS011;10359;53.596;22.520;2022-07-06T15:45:43;2.20;;;1.40;;
20399;SDS011;10359;53.596;22.520;2022-07-06T15:48:32;3.20;;;1.40;;
20399;SDS011;10359;53.596;22.520;2022-07-06T15:51:22;2.47;;;1.53;;
20399;SDS011;10359;53.596;22.520;2022-07-06T15:54:11;2.70;;;1.43;;
20399;SDS011;10359;53.596;22.520;2022-07-06T15:57:03;5.07;;;1.90;;
20399;SDS011;10359;53.596;22.520;2022-07-06T15:59:53;2.50;;;1.90;;
20399;SDS011;10359;53.596;22.520;2022-07-06T16:02:43;3.30;;;1.80;;
20399;SDS011;10359;53.596;22.520;2022-07-06T16:05:33;2.27;;;1.60;;
20399;SDS011;10359;53.596;22.520;2022-07-06T16:08:43;2.80;;;1.60;;
20399;SDS011;10359;53.596;22.520;2022-07-06T16:11:33;2.93;;;1.50;;
20399;SDS011;10359;53.596;22.520;2022-07-06T16:14:24;2.03;;;1.23;;
20399;SDS011;10359;53.596;22.520;2022-07-06T16:17:13;2.40;;;1.50;;
20399;SDS011;10359;53.596;22.520;2022-07-06T16:20:03;4.43;;;1.33;;
20399;SDS011;10359;53.596;22.520;2022-07-06T16:22:53;1.60;;;1.20;;
20399;SDS011;10359;53.596;22.520;2022-07-06T16:25:42;3.97;;;1.50;;
20399;SDS011;10359;53.596;22.520;2022-07-06T16:28:33;1.90;;;1.70;;
20399;SDS011;10359;53.596;22.520;2022-07-06T16:31:24;2.60;;;1.30;;
20399;SDS011;10359;53.596;22.520;2022-07-06T16:34:14;3.13;;;1.33;;
20399;SDS011;10359;53.596;22.520;2022-07-06T16:37:04;3.00;;;1.20;;